sensor_id;sensor_type;location;lat;lon;timestamp;P1;durP1;ratioP1;P2;durP2;ratioP2
36833;SDS011;48003;52.084;5.224;2023-07-20T00:01:12;4.0;;;2.8;;
36833;SDS011;48003;52.084;5.224;2023-07-20T00:02:49;6.9;;;2.9;;
36833;SDS011;48003;52.084;5.224;2023-07-20T00:04:26;5.2;;;3.0;;
36833;SDS011;48003;52.084;5.224;2023-07-20T00:07:38;5.8;;;2.8;;
36833;SDS011;48003;52.084;5.224;2023-07-20T00:09:14;5.0;;;2.8;;
36833;SDS011;48003;52.084;5.224;2023-07-20T00:10:50;5.2;;;2.7;;
36833;SDS011;48003;52.084;5.224;2023-07-20T00:12:27;5.0;;;2.6;;
36833;SDS011;48003;52.084;5.224;2023-07-20T00:15:39;4.3;;;2.7;;
36833;SDS011;48003;52.084;5.224;2023-07-20T00:17:15;4.61;;;2.6;;
36833;SDS011;48003;52.084;5.224;2023-07-20T00:18:51;3.9;;;2.4;;
36833;SDS011;48003;52.084;5.224;2023-07-20T00:22:03;4.5;;;2.4;;
36833;SDS011;48003;52.084;5.224;2023-07-20T00:23:39;3.8;;;2.4;;
36833;SDS011;48003;52.084;5.224;2023-07-20T00:25:15;4.8;;;2.31;;
36833;SDS011;48003;52.084;5.224;2023-07-20T00:28:28;4.8;;;2.31;;
36833;SDS011;48003;52.084;5.224;2023-07-20T00:30:04;5.11;;;2.1;;
36833;SDS011;48003;52.084;5.224;2023-07-20T00:31:41;7.0;;;2.4;;
36833;SDS011;48003;52.084;5.224;2023-07-20T00:34:54;3.0;;;2.1;;
36833;SDS011;48003;52.084;5.224;2023-07-20T00:36:30;3.9;;;2.1;;
36833;SDS011;48003;52.084;5.224;2023-07-20T00:38:06;2.8;;;2.1;;
36833;SDS011;48003;52.084;5.224;2023-07-20T00:39:42;3.4;;;2.31;;
36833;SDS011;48003;52.084;5.224;2023-07-20T00:42:55;3.4;;;2.21;;
36833;SDS011;48003;52.084;5.224;2023-07-20T00:44:31;4.2;;;2.4;;
36833;SDS011;48003;52.084;5.224;2023-07-20T00:46:07;3.6;;;2.31;;
36833;SDS011;48003;52.084;5.224;2023-07-20T00:49:22;3.1;;;2.21;;
36833;SDS011;48003;52.084;5.224;2023-07-20T00:50:58;3.7;;;2.21;;
36833;SDS011;48003;52.084;5.224;2023-07-20T00:52:35;2.7;;;1.7;;
36833;SDS011;48003;52.084;5.224;2023-07-20T00:55:51;3.2;;;1.5;;
36833;SDS011;48003;52.084;5.224;2023-07-20T00:57:27;2.21;;;1.5;;
36833;SDS011;48003;52.084;5.224;2023-07-20T00:59:03;2.6;;;1.5;;
36833;SDS011;48003;52.084;5.224;2023-07-20T01:00:40;2.6;;;1.6;;
36833;SDS011;48003;52.084;5.224;2023-07-20T01:03:52;2.21;;;1.5;;
36833;SDS011;48003;52.084;5.224;2023-07-20T01:05:32;3.2;;;1.5;;
36833;SDS011;48003;52.084;5.224;2023-07-20T01:07:17;2.8;;;1.3;;
36833;SDS011;48003;52.084;5.224;2023-07-20T01:09:02;2.5;;;1.5;;
36833;SDS011;48003;52.084;5.224;2023-07-20T01:12:35;1.7;;;1.4;;
36833;SDS011;48003;52.084;5.224;2023-07-20T01:14:18;1.8;;;1.4;;
36833;SDS011;48003;52.084;5.224;2023-07-20T01:15:56;1.8;;;1.0;;
36833;SDS011;48003;52.084;5.224;2023-07-20T01:17:35;4.41;;;1.2;;
36833;SDS011;48003;52.084;5.224;2023-07-20T01:20:48;2.1;;;1.4;;
36833;SDS011;48003;52.084;5.224;2023-07-20T01:22:32;2.0;;;1.4;;
36833;SDS011;48003;52.084;5.224;2023-07-20T01:24:57;1.9;;;1.3;;
36833;SDS011;48003;52.084;5.224;2023-07-20T01:26:56;2.9;;;1.4;;
36833;SDS011;48003;52.084;5.224;2023-07-20T01:30:10;2.7;;;1.11;;
36833;SDS011;48003;52.084;5.224;2023-07-20T01:32:00;2.1;;;1.3;;
36833;SDS011;48003;52.084;5.224;2023-07-20T01:35:17;1.5;;;1.2;;
36833;SDS011;48003;52.084;5.224;2023-07-20T01:36:57;2.1;;;1.3;;
36833;SDS011;48003;52.084;5.224;2023-07-20T01:38:34;2.21;;;1.5;;
36833;SDS011;48003;52.084;5.224;2023-07-20T01:41:50;2.7;;;1.5;;
36833;SDS011;48003;52.084;5.224;2023-07-20T01:43:26;3.6;;;1.5;;
36833;SDS011;48003;52.084;5.224;2023-07-20T01:45:02;2.1;;;1.5;;
36833;SDS011;48003;52.084;5.224;2023-07-20T01:46:39;2.21;;;1.5;;
36833;SDS011;48003;52.084;5.224;2023-07-20T01:49:51;2.8;;;1.4;;
36833;SDS011;48003;52.084;5.224;2023-07-20T01:51:27;1.9;;;1.4;;
36833;SDS011;48003;52.084;5.224;2023-07-20T01:53:03;2.21;;;1.6;;
36833;SDS011;48003;52.084;5.224;2023-07-20T01:56:16;1.8;;;1.5;;
36833;SDS011;48003;52.084;5.224;2023-07-20T01:57:52;2.1;;;1.5;;
36833;SDS011;48003;52.084;5.224;2023-07-20T01:59:29;3.4;;;1.6;;
36833;SDS011;48003;52.084;5.224;2023-07-20T02:02:41;2.21;;;1.6;;
36833;SDS011;48003;52.084;5.224;2023-07-20T02:04:17;3.3;;;1.6;;
36833;SDS011;48003;52.084;5.224;2023-07-20T02:05:53;2.0;;;1.6;;
36833;SDS011;48003;52.084;5.224;2023-07-20T02:07:29;2.9;;;1.8;;
36833;SDS011;48003;52.084;5.224;2023-07-20T02:10:42;1.9;;;1.6;;
36833;SDS011;48003;52.084;5.224;2023-07-20T02:12:21;2.1;;;1.5;;
36833;SDS011;48003;52.084;5.224;2023-07-20T02:13:57;1.8;;;1.5;;
36833;SDS011;48003;52.084;5.224;2023-07-20T02:17:09;2.0;;;1.6;;
36833;SDS011;48003;52.084;5.224;2023-07-20T02:18:45;3.7;;;1.6;;
36833;SDS011;48003;52.084;5.224;2023-07-20T02:20:21;1.6;;;1.3;;
36833;SDS011;48003;52.084;5.224;2023-07-20T02:23:34;2.9;;;1.9;;
36833;SDS011;48003;52.084;5.224;2023-07-20T02:25:10;3.7;;;1.9;;
36833;SDS011;48003;52.084;5.224;2023-07-20T02:26:46;3.7;;;1.9;;
36833;SDS011;48003;52.084;5.224;2023-07-20T02:29:58;2.8;;;1.6;;
36833;SDS011;48003;52.084;5.224;2023-07-20T02:31:34;4.1;;;1.6;;
36833;SDS011;48003;52.084;5.224;2023-07-20T02:33:10;1.8;;;1.5;;
36833;SDS011;48003;52.084;5.224;2023-07-20T02:34:46;2.21;;;1.6;;
36833;SDS011;48003;52.084;5.224;2023-07-20T02:37:59;4.5;;;1.7;;
36833;SDS011;48003;52.084;5.224;2023-07-20T02:39:35;2.8;;;1.5;;
36833;SDS011;48003;52.084;5.224;2023-07-20T02:41:11;2.7;;;1.6;;
36833;SDS011;48003;52.084;5.224;2023-07-20T02:44:25;2.4;;;1.7;;
36833;SDS011;48003;52.084;5.224;2023-07-20T02:46:01;2.8;;;1.7;;
36833;SDS011;48003;52.084;5.224;2023-07-20T02:47:37;2.8;;;1.7;;
36833;SDS011;48003;52.084;5.224;2023-07-20T02:50:49;3.6;;;2.1;;
36833;SDS011;48003;52.084;5.224;2023-07-20T02:52:25;2.9;;;1.8;;
36833;SDS011;48003;52.084;5.224;2023-07-20T02:54:02;2.1;;;1.8;;
36833;SDS011;48003;52.084;5.224;2023-07-20T02:55:38;4.61;;;2.1;;
36833;SDS011;48003;52.084;5.224;2023-07-20T02:58:50;3.6;;;1.9;;
36833;SDS011;48003;52.084;5.224;2023-07-20T03:00:27;2.4;;;1.8;;
36833;SDS011;48003;52.084;5.224;2023-07-20T03:02:03;2.4;;;1.8;;
36833;SDS011;48003;52.084;5.224;2023-07-20T03:05:15;4.2;;;2.0;;
36833;SDS011;48003;52.084;5.224;2023-07-20T03:06:51;3.7;;;1.9;;
36833;SDS011;48003;52.084;5.224;2023-07-20T03:08:28;4.2;;;1.9;;
36833;SDS011;48003;52.084;5.224;2023-07-20T03:11:41;3.0;;;2.0;;
36833;SDS011;48003;52.084;5.224;2023-07-20T03:13:17;2.9;;;2.0;;
36833;SDS011;48003;52.084;5.224;2023-07-20T03:14:53;3.2;;;2.21;;
36833;SDS011;48003;52.084;5.224;2023-07-20T03:18:05;2.4;;;1.9;;
36833;SDS011;48003;52.084;5.224;2023-07-20T03:19:41;3.1;;;2.1;;
36833;SDS011;48003;52.084;5.224;2023-07-20T03:21:17;3.1;;;2.0;;
36833;SDS011;48003;52.084;5.224;2023-07-20T03:22:54;4.0;;;2.21;;
36833;SDS011;48003;52.084;5.224;2023-07-20T03:26:06;3.9;;;2.21;;
36833;SDS011;48003;52.084;5.224;2023-07-20T03:27:42;2.4;;;2.0;;
36833;SDS011;48003;52.084;5.224;2023-07-20T03:29:18;3.0;;;2.21;;
36833;SDS011;48003;52.084;5.224;2023-07-20T03:32:31;4.8;;;2.6;;
36833;SDS011;48003;52.084;5.224;2023-07-20T03:34:07;4.7;;;2.8;;
36833;SDS011;48003;52.084;5.224;2023-07-20T03:35:43;3.7;;;2.7;;
36833;SDS011;48003;52.084;5.224;2023-07-20T03:38:56;3.3;;;2.5;;
36833;SDS011;48003;52.084;5.224;2023-07-20T03:40:32;3.8;;;2.6;;
36833;SDS011;48003;52.084;5.224;2023-07-20T03:42:08;4.41;;;2.6;;
36833;SDS011;48003;52.084;5.224;2023-07-20T03:43:44;4.2;;;2.5;;
36833;SDS011;48003;52.084;5.224;2023-07-20T03:46:56;3.7;;;2.31;;
36833;SDS011;48003;52.084;5.224;2023-07-20T03:48:33;3.7;;;2.7;;
36833;SDS011;48003;52.084;5.224;2023-07-20T03:50:10;3.6;;;2.6;;
36833;SDS011;48003;52.084;5.224;2023-07-20T03:53:22;3.0;;;2.4;;
36833;SDS011;48003;52.084;5.224;2023-07-20T03:54:58;4.2;;;2.4;;
36833;SDS011;48003;52.084;5.224;2023-07-20T03:56:34;3.5;;;2.21;;
36833;SDS011;48003;52.084;5.224;2023-07-20T03:59:46;2.4;;;2.1;;
36833;SDS011;48003;52.084;5.224;2023-07-20T04:01:24;4.41;;;2.21;;
36833;SDS011;48003;52.084;5.224;2023-07-20T04:03:00;2.9;;;2.4;;
36833;SDS011;48003;52.084;5.224;2023-07-20T04:06:12;2.8;;;2.1;;
36833;SDS011;48003;52.084;5.224;2023-07-20T04:07:49;4.7;;;2.6;;
36833;SDS011;48003;52.084;5.224;2023-07-20T04:09:25;3.0;;;2.1;;
36833;SDS011;48003;52.084;5.224;2023-07-20T04:11:01;5.9;;;2.9;;
36833;SDS011;48003;52.084;5.224;2023-07-20T04:14:13;3.5;;;2.5;;
36833;SDS011;48003;52.084;5.224;2023-07-20T04:15:49;3.4;;;2.7;;
36833;SDS011;48003;52.084;5.224;2023-07-20T04:17:25;5.2;;;3.0;;
36833;SDS011;48003;52.084;5.224;2023-07-20T04:20:37;4.3;;;2.8;;
36833;SDS011;48003;52.084;5.224;2023-07-20T04:22:13;3.2;;;2.7;;
36833;SDS011;48003;52.084;5.224;2023-07-20T04:23:50;4.5;;;3.1;;
36833;SDS011;48003;52.084;5.224;2023-07-20T04:27:02;5.5;;;3.1;;
36833;SDS011;48003;52.084;5.224;2023-07-20T04:28:38;6.3;;;3.3;;
36833;SDS011;48003;52.084;5.224;2023-07-20T04:30:17;3.8;;;3.1;;
36833;SDS011;48003;52.084;5.224;2023-07-20T04:31:53;3.8;;;2.8;;
36833;SDS011;48003;52.084;5.224;2023-07-20T04:35:06;4.8;;;2.7;;
36833;SDS011;48003;52.084;5.224;2023-07-20T04:36:42;3.4;;;2.6;;
36833;SDS011;48003;52.084;5.224;2023-07-20T04:38:19;3.8;;;3.0;;
36833;SDS011;48003;52.084;5.224;2023-07-20T04:41:32;3.7;;;2.9;;
36833;SDS011;48003;52.084;5.224;2023-07-20T04:43:08;4.3;;;3.1;;
36833;SDS011;48003;52.084;5.224;2023-07-20T04:44:44;3.6;;;2.8;;
36833;SDS011;48003;52.084;5.224;2023-07-20T04:47:56;3.6;;;2.9;;
36833;SDS011;48003;52.084;5.224;2023-07-20T04:49:32;3.4;;;2.5;;
36833;SDS011;48003;52.084;5.224;2023-07-20T04:51:08;3.4;;;2.5;;
36833;SDS011;48003;52.084;5.224;2023-07-20T04:54:21;4.1;;;2.7;;
36833;SDS011;48003;52.084;5.224;2023-07-20T04:55:57;5.5;;;2.9;;
36833;SDS011;48003;52.084;5.224;2023-07-20T04:57:33;4.91;;;2.9;;
36833;SDS011;48003;52.084;5.224;2023-07-20T04:59:09;4.3;;;3.3;;
36833;SDS011;48003;52.084;5.224;2023-07-20T05:02:21;4.7;;;3.8;;
36833;SDS011;48003;52.084;5.224;2023-07-20T05:03:57;6.7;;;4.0;;
36833;SDS011;48003;52.084;5.224;2023-07-20T05:05:34;4.91;;;4.0;;
36833;SDS011;48003;52.084;5.224;2023-07-20T05:08:46;7.7;;;4.1;;
36833;SDS011;48003;52.084;5.224;2023-07-20T05:10:22;7.4;;;4.1;;
36833;SDS011;48003;52.084;5.224;2023-07-20T05:11:59;5.4;;;4.2;;
36833;SDS011;48003;52.084;5.224;2023-07-20T05:15:12;5.7;;;4.3;;
36833;SDS011;48003;52.084;5.224;2023-07-20T05:16:48;6.5;;;4.7;;
36833;SDS011;48003;52.084;5.224;2023-07-20T05:18:25;5.8;;;4.7;;
36833;SDS011;48003;52.084;5.224;2023-07-20T05:20:01;6.3;;;4.61;;
36833;SDS011;48003;52.084;5.224;2023-07-20T05:23:14;6.0;;;4.61;;
36833;SDS011;48003;52.084;5.224;2023-07-20T05:24:50;6.6;;;4.3;;
36833;SDS011;48003;52.084;5.224;2023-07-20T05:26:26;7.6;;;4.7;;
36833;SDS011;48003;52.084;5.224;2023-07-20T05:29:43;5.9;;;4.2;;
36833;SDS011;48003;52.084;5.224;2023-07-20T05:31:20;6.4;;;4.5;;
36833;SDS011;48003;52.084;5.224;2023-07-20T05:32:56;5.2;;;3.8;;
36833;SDS011;48003;52.084;5.224;2023-07-20T05:36:08;5.3;;;3.9;;
36833;SDS011;48003;52.084;5.224;2023-07-20T05:37:44;4.8;;;3.7;;
36833;SDS011;48003;52.084;5.224;2023-07-20T05:39:21;4.61;;;3.0;;
36833;SDS011;48003;52.084;5.224;2023-07-20T05:40:59;4.8;;;2.9;;
36833;SDS011;48003;52.084;5.224;2023-07-20T05:44:13;3.3;;;2.7;;
36833;SDS011;48003;52.084;5.224;2023-07-20T05:45:49;3.6;;;2.5;;
36833;SDS011;48003;52.084;5.224;2023-07-20T05:47:25;3.9;;;2.4;;
36833;SDS011;48003;52.084;5.224;2023-07-20T05:50:38;5.3;;;2.4;;
36833;SDS011;48003;52.084;5.224;2023-07-20T05:52:18;2.8;;;1.7;;
36833;SDS011;48003;52.084;5.224;2023-07-20T05:53:54;3.1;;;1.8;;
36833;SDS011;48003;52.084;5.224;2023-07-20T05:57:07;2.8;;;1.9;;
36833;SDS011;48003;52.084;5.224;2023-07-20T05:58:43;3.2;;;1.5;;
36833;SDS011;48003;52.084;5.224;2023-07-20T06:00:19;3.1;;;1.6;;
36833;SDS011;48003;52.084;5.224;2023-07-20T06:01:56;4.2;;;1.6;;
36833;SDS011;48003;52.084;5.224;2023-07-20T06:05:08;3.9;;;1.0;;
36833;SDS011;48003;52.084;5.224;2023-07-20T06:06:45;2.21;;;1.2;;
36833;SDS011;48003;52.084;5.224;2023-07-20T06:08:21;1.7;;;1.0;;
36833;SDS011;48003;52.084;5.224;2023-07-20T06:11:33;4.0;;;1.2;;
36833;SDS011;48003;52.084;5.224;2023-07-20T06:13:09;2.0;;;1.11;;
36833;SDS011;48003;52.084;5.224;2023-07-20T06:14:45;2.5;;;0.8;;
36833;SDS011;48003;52.084;5.224;2023-07-20T06:17:58;1.0;;;0.8;;
36833;SDS011;48003;52.084;5.224;2023-07-20T06:19:34;2.31;;;0.7;;
36833;SDS011;48003;52.084;5.224;2023-07-20T06:21:11;3.6;;;0.9;;
36833;SDS011;48003;52.084;5.224;2023-07-20T06:22:47;3.0;;;0.9;;
36833;SDS011;48003;52.084;5.224;2023-07-20T06:25:59;1.8;;;1.0;;
36833;SDS011;48003;52.084;5.224;2023-07-20T06:27:35;2.9;;;0.8;;
36833;SDS011;48003;52.084;5.224;2023-07-20T06:29:12;2.7;;;0.7;;
36833;SDS011;48003;52.084;5.224;2023-07-20T06:32:24;0.8;;;0.7;;
36833;SDS011;48003;52.084;5.224;2023-07-20T06:34:00;2.1;;;0.7;;
36833;SDS011;48003;52.084;5.224;2023-07-20T06:35:36;2.21;;;1.0;;
36833;SDS011;48003;52.084;5.224;2023-07-20T06:38:48;4.5;;;0.9;;
36833;SDS011;48003;52.084;5.224;2023-07-20T06:40:24;2.31;;;0.8;;
36833;SDS011;48003;52.084;5.224;2023-07-20T06:42:00;2.5;;;0.8;;
36833;SDS011;48003;52.084;5.224;2023-07-20T06:45:13;1.5;;;0.7;;
36833;SDS011;48003;52.084;5.224;2023-07-20T06:46:49;3.0;;;0.9;;
36833;SDS011;48003;52.084;5.224;2023-07-20T06:48:25;2.8;;;0.8;;
36833;SDS011;48003;52.084;5.224;2023-07-20T06:50:01;1.9;;;0.7;;
36833;SDS011;48003;52.084;5.224;2023-07-20T06:53:13;2.21;;;0.8;;
36833;SDS011;48003;52.084;5.224;2023-07-20T06:54:49;1.0;;;0.5;;
36833;SDS011;48003;52.084;5.224;2023-07-20T06:56:25;1.0;;;0.9;;
36833;SDS011;48003;52.084;5.224;2023-07-20T06:59:37;1.6;;;0.6;;
36833;SDS011;48003;52.084;5.224;2023-07-20T07:01:14;2.1;;;0.7;;
36833;SDS011;48003;52.084;5.224;2023-07-20T07:02:50;1.4;;;0.7;;
36833;SDS011;48003;52.084;5.224;2023-07-20T07:06:02;2.1;;;0.6;;
36833;SDS011;48003;52.084;5.224;2023-07-20T07:07:38;2.0;;;0.6;;
36833;SDS011;48003;52.084;5.224;2023-07-20T07:09:14;1.3;;;0.6;;
36833;SDS011;48003;52.084;5.224;2023-07-20T07:10:51;1.2;;;0.5;;
36833;SDS011;48003;52.084;5.224;2023-07-20T07:14:04;1.3;;;0.6;;
36833;SDS011;48003;52.084;5.224;2023-07-20T07:15:40;2.5;;;0.9;;
36833;SDS011;48003;52.084;5.224;2023-07-20T07:17:16;2.7;;;0.7;;
36833;SDS011;48003;52.084;5.224;2023-07-20T07:20:28;2.6;;;0.8;;
36833;SDS011;48003;52.084;5.224;2023-07-20T07:22:04;1.4;;;0.6;;
36833;SDS011;48003;52.084;5.224;2023-07-20T07:23:41;1.6;;;0.5;;
36833;SDS011;48003;52.084;5.224;2023-07-20T07:26:53;2.4;;;0.5;;
36833;SDS011;48003;52.084;5.224;2023-07-20T07:28:29;1.5;;;0.5;;
36833;SDS011;48003;52.084;5.224;2023-07-20T07:30:06;1.2;;;0.5;;
36833;SDS011;48003;52.084;5.224;2023-07-20T07:33:19;1.6;;;0.5;;
36833;SDS011;48003;52.084;5.224;2023-07-20T07:34:56;1.4;;;0.6;;
36833;SDS011;48003;52.084;5.224;2023-07-20T07:36:32;1.5;;;0.5;;
36833;SDS011;48003;52.084;5.224;2023-07-20T07:38:09;0.8;;;0.4;;
36833;SDS011;48003;52.084;5.224;2023-07-20T07:41:21;2.0;;;0.6;;
36833;SDS011;48003;52.084;5.224;2023-07-20T07:42:57;0.6;;;0.5;;
36833;SDS011;48003;52.084;5.224;2023-07-20T07:44:33;2.4;;;0.7;;
36833;SDS011;48003;52.084;5.224;2023-07-20T07:47:45;1.6;;;0.7;;
36833;SDS011;48003;52.084;5.224;2023-07-20T07:49:21;1.9;;;0.9;;
36833;SDS011;48003;52.084;5.224;2023-07-20T07:50:57;0.8;;;0.5;;
36833;SDS011;48003;52.084;5.224;2023-07-20T07:54:10;2.4;;;0.9;;
36833;SDS011;48003;52.084;5.224;2023-07-20T07:55:47;1.3;;;0.5;;
36833;SDS011;48003;52.084;5.224;2023-07-20T07:57:23;1.9;;;0.6;;
36833;SDS011;48003;52.084;5.224;2023-07-20T07:58:59;2.0;;;0.6;;
36833;SDS011;48003;52.084;5.224;2023-07-20T08:02:11;1.11;;;0.4;;
36833;SDS011;48003;52.084;5.224;2023-07-20T08:03:47;1.8;;;0.6;;
36833;SDS011;48003;52.084;5.224;2023-07-20T08:05:23;1.2;;;0.4;;
36833;SDS011;48003;52.084;5.224;2023-07-20T08:08:37;1.3;;;0.4;;
36833;SDS011;48003;52.084;5.224;2023-07-20T08:10:14;2.0;;;0.5;;
36833;SDS011;48003;52.084;5.224;2023-07-20T08:11:50;1.2;;;0.3;;
36833;SDS011;48003;52.084;5.224;2023-07-20T08:15:02;2.31;;;0.6;;
36833;SDS011;48003;52.084;5.224;2023-07-20T08:16:38;1.4;;;0.4;;
36833;SDS011;48003;52.084;5.224;2023-07-20T08:18:14;1.9;;;0.5;;
36833;SDS011;48003;52.084;5.224;2023-07-20T08:21:27;2.0;;;0.4;;
36833;SDS011;48003;52.084;5.224;2023-07-20T08:23:03;2.0;;;0.4;;
36833;SDS011;48003;52.084;5.224;2023-07-20T08:24:39;1.2;;;0.5;;
36833;SDS011;48003;52.084;5.224;2023-07-20T08:26:16;1.3;;;0.6;;
36833;SDS011;48003;52.084;5.224;2023-07-20T08:29:28;2.1;;;0.5;;
36833;SDS011;48003;52.084;5.224;2023-07-20T08:31:05;2.4;;;0.5;;
36833;SDS011;48003;52.084;5.224;2023-07-20T08:32:42;1.5;;;0.4;;
36833;SDS011;48003;52.084;5.224;2023-07-20T08:35:55;1.5;;;0.4;;
36833;SDS011;48003;52.084;5.224;2023-07-20T08:37:31;0.4;;;0.3;;
36833;SDS011;48003;52.084;5.224;2023-07-20T08:39:07;1.9;;;0.4;;
36833;SDS011;48003;52.084;5.224;2023-07-20T08:42:21;0.8;;;0.4;;
36833;SDS011;48003;52.084;5.224;2023-07-20T08:43:59;1.11;;;0.3;;
36833;SDS011;48003;52.084;5.224;2023-07-20T08:45:37;0.9;;;0.4;;
36833;SDS011;48003;52.084;5.224;2023-07-20T08:47:15;0.8;;;0.4;;
36833;SDS011;48003;52.084;5.224;2023-07-20T08:50:31;0.6;;;0.4;;
36833;SDS011;48003;52.084;5.224;2023-07-20T08:52:08;1.8;;;0.6;;
36833;SDS011;48003;52.084;5.224;2023-07-20T08:53:45;1.11;;;0.4;;
36833;SDS011;48003;52.084;5.224;2023-07-20T08:57:01;0.9;;;0.5;;
36833;SDS011;48003;52.084;5.224;2023-07-20T08:58:39;0.8;;;0.4;;
36833;SDS011;48003;52.084;5.224;2023-07-20T09:00:20;5.3;;;2.0;;
36833;SDS011;48003;52.084;5.224;2023-07-20T09:01:58;1.4;;;0.6;;
36833;SDS011;48003;52.084;5.224;2023-07-20T09:05:11;0.8;;;0.5;;
36833;SDS011;48003;52.084;5.224;2023-07-20T09:06:47;0.8;;;0.5;;
36833;SDS011;48003;52.084;5.224;2023-07-20T09:08:25;0.9;;;0.3;;
36833;SDS011;48003;52.084;5.224;2023-07-20T09:11:38;0.6;;;0.3;;
36833;SDS011;48003;52.084;5.224;2023-07-20T09:13:15;0.7;;;0.3;;
36833;SDS011;48003;52.084;5.224;2023-07-20T09:14:52;1.0;;;0.4;;
36833;SDS011;48003;52.084;5.224;2023-07-20T09:16:28;0.9;;;0.4;;
36833;SDS011;48003;52.084;5.224;2023-07-20T09:19:45;0.6;;;0.3;;
36833;SDS011;48003;52.084;5.224;2023-07-20T09:21:22;1.11;;;0.4;;
36833;SDS011;48003;52.084;5.224;2023-07-20T09:22:58;2.4;;;0.4;;
36833;SDS011;48003;52.084;5.224;2023-07-20T09:26:10;1.2;;;0.3;;
36833;SDS011;48003;52.084;5.224;2023-07-20T09:27:48;0.9;;;0.4;;
36833;SDS011;48003;52.084;5.224;2023-07-20T09:29:26;1.11;;;0.4;;
36833;SDS011;48003;52.084;5.224;2023-07-20T09:31:02;0.9;;;0.4;;
36833;SDS011;48003;52.084;5.224;2023-07-20T09:34:28;0.4;;;0.2;;
36833;SDS011;48003;52.084;5.224;2023-07-20T09:36:05;1.9;;;0.4;;
36833;SDS011;48003;52.084;5.224;2023-07-20T09:37:45;0.6;;;0.3;;
36833;SDS011;48003;52.084;5.224;2023-07-20T09:39:22;0.6;;;0.3;;
36833;SDS011;48003;52.084;5.224;2023-07-20T09:42:35;1.0;;;0.4;;
36833;SDS011;48003;52.084;5.224;2023-07-20T09:44:13;0.8;;;0.4;;
36833;SDS011;48003;52.084;5.224;2023-07-20T09:45:51;1.11;;;0.4;;
36833;SDS011;48003;52.084;5.224;2023-07-20T09:49:12;1.9;;;0.4;;
36833;SDS011;48003;52.084;5.224;2023-07-20T09:50:49;0.9;;;0.4;;
36833;SDS011;48003;52.084;5.224;2023-07-20T09:52:26;1.7;;;1.0;;
36833;SDS011;48003;52.084;5.224;2023-07-20T09:54:03;2.5;;;0.8;;
36833;SDS011;48003;52.084;5.224;2023-07-20T09:57:18;8.2;;;5.5;;
36833;SDS011;48003;52.084;5.224;2023-07-20T09:58:57;1.0;;;0.7;;
36833;SDS011;48003;52.084;5.224;2023-07-20T10:00:34;2.8;;;1.7;;
36833;SDS011;48003;52.084;5.224;2023-07-20T10:03:58;1.6;;;1.11;;
36833;SDS011;48003;52.084;5.224;2023-07-20T10:05:39;1.0;;;0.4;;
36833;SDS011;48003;52.084;5.224;2023-07-20T10:09:00;0.9;;;0.5;;
36833;SDS011;48003;52.084;5.224;2023-07-20T10:12:18;1.5;;;0.6;;
36833;SDS011;48003;52.084;5.224;2023-07-20T10:13:59;1.3;;;0.8;;
36833;SDS011;48003;52.084;5.224;2023-07-20T10:15:40;1.7;;;0.9;;
36833;SDS011;48003;52.084;5.224;2023-07-20T10:17:22;1.2;;;0.4;;
36833;SDS011;48003;52.084;5.224;2023-07-20T10:20:42;0.7;;;0.4;;
36833;SDS011;48003;52.084;5.224;2023-07-20T10:22:24;1.4;;;0.5;;
36833;SDS011;48003;52.084;5.224;2023-07-20T10:24:06;0.8;;;0.4;;
36833;SDS011;48003;52.084;5.224;2023-07-20T10:25:44;0.9;;;0.5;;
36833;SDS011;48003;52.084;5.224;2023-07-20T10:29:00;0.6;;;0.5;;
36833;SDS011;48003;52.084;5.224;2023-07-20T10:30:37;1.0;;;0.5;;
36833;SDS011;48003;52.084;5.224;2023-07-20T10:32:14;1.7;;;0.6;;
36833;SDS011;48003;52.084;5.224;2023-07-20T10:33:50;1.9;;;0.6;;
36833;SDS011;48003;52.084;5.224;2023-07-20T10:37:03;1.8;;;0.5;;
36833;SDS011;48003;52.084;5.224;2023-07-20T10:38:40;3.0;;;0.8;;
36833;SDS011;48003;52.084;5.224;2023-07-20T10:40:25;1.11;;;0.5;;
36833;SDS011;48003;52.084;5.224;2023-07-20T10:42:13;1.8;;;0.5;;
36833;SDS011;48003;52.084;5.224;2023-07-20T10:45:39;1.5;;;0.5;;
36833;SDS011;48003;52.084;5.224;2023-07-20T10:47:28;0.9;;;0.6;;
36833;SDS011;48003;52.084;5.224;2023-07-20T10:49:20;2.4;;;0.5;;
36833;SDS011;48003;52.084;5.224;2023-07-20T10:51:12;1.4;;;0.6;;
36833;SDS011;48003;52.084;5.224;2023-07-20T10:53:03;2.1;;;0.7;;
36833;SDS011;48003;52.084;5.224;2023-07-20T10:54:47;3.0;;;1.3;;
36833;SDS011;48003;52.084;5.224;2023-07-20T10:58:06;1.7;;;0.4;;
36833;SDS011;48003;52.084;5.224;2023-07-20T10:59:45;1.7;;;0.9;;
36833;SDS011;48003;52.084;5.224;2023-07-20T11:01:27;1.4;;;0.8;;
36833;SDS011;48003;52.084;5.224;2023-07-20T11:03:04;0.7;;;0.5;;
36833;SDS011;48003;52.084;5.224;2023-07-20T11:06:33;0.6;;;0.4;;
36833;SDS011;48003;52.084;5.224;2023-07-20T11:08:10;1.5;;;0.5;;
36833;SDS011;48003;52.084;5.224;2023-07-20T11:09:47;0.7;;;0.5;;
36833;SDS011;48003;52.084;5.224;2023-07-20T11:13:18;1.7;;;0.3;;
36833;SDS011;48003;52.084;5.224;2023-07-20T11:15:10;2.0;;;0.7;;
36833;SDS011;48003;52.084;5.224;2023-07-20T11:16:46;1.7;;;0.6;;
36833;SDS011;48003;52.084;5.224;2023-07-20T11:18:25;1.11;;;0.6;;
36833;SDS011;48003;52.084;5.224;2023-07-20T11:20:02;3.4;;;0.8;;
36833;SDS011;48003;52.084;5.224;2023-07-20T11:23:19;3.0;;;0.6;;
36833;SDS011;48003;52.084;5.224;2023-07-20T11:24:56;2.0;;;0.9;;
36833;SDS011;48003;52.084;5.224;2023-07-20T11:26:42;1.4;;;1.11;;
36833;SDS011;48003;52.084;5.224;2023-07-20T11:28:19;1.11;;;0.6;;
36833;SDS011;48003;52.084;5.224;2023-07-20T11:31:34;1.3;;;0.6;;
36833;SDS011;48003;52.084;5.224;2023-07-20T11:33:11;0.9;;;0.5;;
36833;SDS011;48003;52.084;5.224;2023-07-20T11:34:48;1.11;;;0.7;;
36833;SDS011;48003;52.084;5.224;2023-07-20T11:37:59;3.9;;;0.8;;
36833;SDS011;48003;52.084;5.224;2023-07-20T11:39:36;1.6;;;0.5;;
36833;SDS011;48003;52.084;5.224;2023-07-20T11:41:12;1.9;;;0.9;;
36833;SDS011;48003;52.084;5.224;2023-07-20T11:42:49;1.5;;;0.7;;
36833;SDS011;48003;52.084;5.224;2023-07-20T11:46:04;4.3;;;0.9;;
36833;SDS011;48003;52.084;5.224;2023-07-20T11:47:41;1.2;;;0.6;;
36833;SDS011;48003;52.084;5.224;2023-07-20T11:49:18;1.4;;;0.5;;
36833;SDS011;48003;52.084;5.224;2023-07-20T11:52:30;1.6;;;0.8;;
36833;SDS011;48003;52.084;5.224;2023-07-20T11:54:07;1.3;;;0.6;;
36833;SDS011;48003;52.084;5.224;2023-07-20T11:55:45;1.8;;;0.6;;
36833;SDS011;48003;52.084;5.224;2023-07-20T11:58:58;1.9;;;0.5;;
36833;SDS011;48003;52.084;5.224;2023-07-20T12:00:37;1.8;;;0.7;;
36833;SDS011;48003;52.084;5.224;2023-07-20T12:02:14;4.0;;;0.6;;
36833;SDS011;48003;52.084;5.224;2023-07-20T12:03:50;2.21;;;0.8;;
36833;SDS011;48003;52.084;5.224;2023-07-20T12:07:03;2.21;;;0.8;;
36833;SDS011;48003;52.084;5.224;2023-07-20T12:08:39;1.5;;;0.8;;
36833;SDS011;48003;52.084;5.224;2023-07-20T12:10:16;1.4;;;0.6;;
36833;SDS011;48003;52.084;5.224;2023-07-20T12:13:35;2.1;;;0.7;;
36833;SDS011;48003;52.084;5.224;2023-07-20T12:15:14;1.7;;;1.2;;
36833;SDS011;48003;52.084;5.224;2023-07-20T12:16:52;0.8;;;0.6;;
36833;SDS011;48003;52.084;5.224;2023-07-20T12:18:34;1.5;;;0.7;;
36833;SDS011;48003;52.084;5.224;2023-07-20T12:21:48;1.3;;;0.7;;
36833;SDS011;48003;52.084;5.224;2023-07-20T12:23:24;1.9;;;0.6;;
36833;SDS011;48003;52.084;5.224;2023-07-20T12:25:00;2.7;;;1.0;;
36833;SDS011;48003;52.084;5.224;2023-07-20T12:28:13;2.1;;;0.7;;
36833;SDS011;48003;52.084;5.224;2023-07-20T12:29:51;1.0;;;0.7;;
36833;SDS011;48003;52.084;5.224;2023-07-20T12:31:27;1.7;;;0.6;;
36833;SDS011;48003;52.084;5.224;2023-07-20T12:33:04;1.11;;;0.6;;
36833;SDS011;48003;52.084;5.224;2023-07-20T12:36:17;2.7;;;0.7;;
36833;SDS011;48003;52.084;5.224;2023-07-20T12:37:54;1.7;;;0.6;;
36833;SDS011;48003;52.084;5.224;2023-07-20T12:39:30;2.21;;;0.8;;
36833;SDS011;48003;52.084;5.224;2023-07-20T12:42:42;1.5;;;0.8;;
36833;SDS011;48003;52.084;5.224;2023-07-20T12:44:18;0.9;;;0.6;;
36833;SDS011;48003;52.084;5.224;2023-07-20T12:45:55;1.7;;;0.6;;
36833;SDS011;48003;52.084;5.224;2023-07-20T12:49:08;2.0;;;0.6;;
36833;SDS011;48003;52.084;5.224;2023-07-20T12:50:44;0.8;;;0.6;;
36833;SDS011;48003;52.084;5.224;2023-07-20T12:52:20;2.9;;;0.7;;
36833;SDS011;48003;52.084;5.224;2023-07-20T12:53:56;1.6;;;0.7;;
36833;SDS011;48003;52.084;5.224;2023-07-20T12:57:08;1.6;;;0.6;;
36833;SDS011;48003;52.084;5.224;2023-07-20T12:58:44;1.6;;;0.6;;
36833;SDS011;48003;52.084;5.224;2023-07-20T13:00:21;2.8;;;0.6;;